KLGD

La Grande / Union County Airport

La Grande, Oregon, USA
METAR KLGD 210356Z AUTO 31009KT 5SM HZ CLR 20/08 A3004 RMK AO2 SLP307 T02000083
Observed Flight Rules
Aug-21 @ 03:56 UTC (15 minutes ago) Marginal Visual Flight Rules
Wind Visibility Clouds Conditions
310° at 9 knots 5 miles
  • Clear skies
  • Haze
Temperatures Readings
Current 20°C / 68°F
Dewpoint 8°C / 46°F
Humidity 46%
Altimeter 30.04" Hg
Pressure 1030.7 hPa
Elevation 827
METAR KLGD 210356Z AUTO 31009KT 5SM HZ CLR 20/08 A3004 RMK AO2 SLP307 T02000083
Observed Flight Rules
Aug-21 @ 03:56 UTC
(15 minutes ago)
MVFR
Wind Visibility
310° at 9 knots 5 miles
Clouds
  • Clear skies
Conditions
  • Haze
Temperature Dewpoint
20°C / 68°F 8°C / 46°F
Humidity Altimeter Pressure
46% 30.04" Hg 1030.7 hPa